sensor_id;sensor_type;location;lat;lon;timestamp;pressure;altitude;pressure_sealevel;temperature;humidity
61628;BME280;55193;52.102;5.242;2022-10-31T00:00:25;102021.0;;;13.29;100.0
61628;BME280;55193;52.102;5.242;2022-10-31T00:02:01;102022.0;;;13.3;100.0
61628;BME280;55193;52.102;5.242;2022-10-31T00:03:37;102022.0;;;13.24;100.0
61628;BME280;55193;52.102;5.242;2022-10-31T00:05:13;102019.0;;;13.25;100.0
61628;BME280;55193;52.102;5.242;2022-10-31T00:08:27;102018.0;;;13.26;100.0
61628;BME280;55193;52.102;5.242;2022-10-31T00:10:05;102014.0;;;13.25;100.0
61628;BME280;55193;52.102;5.242;2022-10-31T00:11:42;102018.0;;;13.26;100.0
61628;BME280;55193;52.102;5.242;2022-10-31T00:14:54;102016.0;;;13.29;100.0
61628;BME280;55193;52.102;5.242;2022-10-31T00:16:31;102021.0;;;13.41;100.0
61628;BME280;55193;52.102;5.242;2022-10-31T00:18:08;102018.0;;;13.37;100.0
61628;BME280;55193;52.102;5.242;2022-10-31T00:19:46;102018.0;;;13.28;100.0
61628;BME280;55193;52.102;5.242;2022-10-31T00:23:01;102022.0;;;13.33;100.0
61628;BME280;55193;52.102;5.242;2022-10-31T00:24:39;102017.0;;;13.34;100.0
61628;BME280;55193;52.102;5.242;2022-10-31T00:26:16;102019.0;;;13.33;100.0
61628;BME280;55193;52.102;5.242;2022-10-31T00:29:31;102021.0;;;13.3;100.0
61628;BME280;55193;52.102;5.242;2022-10-31T00:31:09;102024.0;;;13.35;100.0
61628;BME280;55193;52.102;5.242;2022-10-31T00:32:47;102033.0;;;13.34;100.0
61628;BME280;55193;52.102;5.242;2022-10-31T00:36:00;102033.0;;;13.44;100.0
61628;BME280;55193;52.102;5.242;2022-10-31T00:37:37;102028.0;;;13.31;100.0
61628;BME280;55193;52.102;5.242;2022-10-31T00:39:13;102030.0;;;13.31;100.0
61628;BME280;55193;52.102;5.242;2022-10-31T00:40:49;102027.0;;;13.28;100.0
61628;BME280;55193;52.102;5.242;2022-10-31T00:44:04;102033.0;;;13.27;100.0
61628;BME280;55193;52.102;5.242;2022-10-31T00:45:41;102026.0;;;13.23;100.0
61628;BME280;55193;52.102;5.242;2022-10-31T00:47:17;102030.0;;;13.23;100.0
61628;BME280;55193;52.102;5.242;2022-10-31T00:50:29;102030.0;;;13.18;100.0
61628;BME280;55193;52.102;5.242;2022-10-31T00:52:05;102039.0;;;13.22;100.0
61628;BME280;55193;52.102;5.242;2022-10-31T00:53:41;102035.0;;;13.26;100.0
61628;BME280;55193;52.102;5.242;2022-10-31T00:56:54;102032.0;;;13.19;100.0
61628;BME280;55193;52.102;5.242;2022-10-31T00:58:30;102038.0;;;13.17;100.0
61628;BME280;55193;52.102;5.242;2022-10-31T01:00:07;102038.0;;;13.16;100.0
61628;BME280;55193;52.102;5.242;2022-10-31T01:01:44;102039.0;;;13.12;100.0
61628;BME280;55193;52.102;5.242;2022-10-31T01:04:57;102037.0;;;13.07;100.0
61628;BME280;55193;52.102;5.242;2022-10-31T01:06:33;102032.0;;;13.07;100.0
61628;BME280;55193;52.102;5.242;2022-10-31T01:08:10;102039.0;;;13.04;100.0
61628;BME280;55193;52.102;5.242;2022-10-31T01:11:23;102040.0;;;13.07;100.0
61628;BME280;55193;52.102;5.242;2022-10-31T01:12:59;102035.0;;;13.05;100.0
61628;BME280;55193;52.102;5.242;2022-10-31T01:14:35;102031.0;;;12.92;100.0
61628;BME280;55193;52.102;5.242;2022-10-31T01:17:51;102030.0;;;12.92;100.0
61628;BME280;55193;52.102;5.242;2022-10-31T01:19:27;102016.0;;;12.9;100.0
61628;BME280;55193;52.102;5.242;2022-10-31T01:21:06;102018.0;;;12.9;100.0
61628;BME280;55193;52.102;5.242;2022-10-31T01:22:43;102017.0;;;12.94;100.0
61628;BME280;55193;52.102;5.242;2022-10-31T01:26:01;102009.0;;;12.95;100.0
61628;BME280;55193;52.102;5.242;2022-10-31T01:27:43;102013.0;;;12.89;100.0
61628;BME280;55193;52.102;5.242;2022-10-31T01:29:19;102010.0;;;12.88;100.0
61628;BME280;55193;52.102;5.242;2022-10-31T01:30:55;102008.0;;;12.83;100.0
61628;BME280;55193;52.102;5.242;2022-10-31T01:34:13;102007.0;;;12.84;100.0
61628;BME280;55193;52.102;5.242;2022-10-31T01:35:51;102003.0;;;12.76;100.0
61628;BME280;55193;52.102;5.242;2022-10-31T01:37:28;102000.0;;;12.75;100.0
61628;BME280;55193;52.102;5.242;2022-10-31T01:40:46;102001.0;;;12.76;100.0
61628;BME280;55193;52.102;5.242;2022-10-31T01:42:23;102002.0;;;12.72;100.0
61628;BME280;55193;52.102;5.242;2022-10-31T01:44:01;102002.0;;;12.69;100.0
61628;BME280;55193;52.102;5.242;2022-10-31T01:45:39;101999.0;;;12.65;100.0
61628;BME280;55193;52.102;5.242;2022-10-31T01:48:57;102002.0;;;12.59;100.0
61628;BME280;55193;52.102;5.242;2022-10-31T01:50:37;101999.0;;;12.56;100.0
61628;BME280;55193;52.102;5.242;2022-10-31T01:52:20;101994.0;;;12.52;100.0
61628;BME280;55193;52.102;5.242;2022-10-31T01:54:03;101993.0;;;12.47;100.0
61628;BME280;55193;52.102;5.242;2022-10-31T01:57:21;101996.0;;;12.49;100.0
61628;BME280;55193;52.102;5.242;2022-10-31T01:58:59;101996.0;;;12.5;100.0
61628;BME280;55193;52.102;5.242;2022-10-31T02:00:37;101998.0;;;12.41;100.0
61628;BME280;55193;52.102;5.242;2022-10-31T02:03:54;101996.0;;;12.3;100.0
61628;BME280;55193;52.102;5.242;2022-10-31T02:05:32;101992.0;;;12.35;100.0
61628;BME280;55193;52.102;5.242;2022-10-31T02:07:12;101994.0;;;12.3;100.0
61628;BME280;55193;52.102;5.242;2022-10-31T02:08:50;101993.0;;;12.23;100.0
61628;BME280;55193;52.102;5.242;2022-10-31T02:12:08;101996.0;;;12.23;100.0
61628;BME280;55193;52.102;5.242;2022-10-31T02:13:47;101992.0;;;12.16;100.0
61628;BME280;55193;52.102;5.242;2022-10-31T02:15:24;101989.0;;;12.2;100.0
61628;BME280;55193;52.102;5.242;2022-10-31T02:17:00;101992.0;;;12.14;100.0
61628;BME280;55193;52.102;5.242;2022-10-31T02:20:15;101992.0;;;12.04;100.0
61628;BME280;55193;52.102;5.242;2022-10-31T02:21:59;101992.0;;;12.1;100.0
61628;BME280;55193;52.102;5.242;2022-10-31T02:23:56;101992.0;;;12.05;100.0
61628;BME280;55193;52.102;5.242;2022-10-31T02:27:31;101992.0;;;12.01;100.0
61628;BME280;55193;52.102;5.242;2022-10-31T02:29:30;101992.0;;;11.92;100.0
61628;BME280;55193;52.102;5.242;2022-10-31T02:32:14;101991.0;;;11.89;100.0
61628;BME280;55193;52.102;5.242;2022-10-31T02:33:58;101989.0;;;11.84;100.0
61628;BME280;55193;52.102;5.242;2022-10-31T02:37:34;101991.0;;;11.87;100.0
61628;BME280;55193;52.102;5.242;2022-10-31T02:39:24;101997.0;;;11.8;100.0
61628;BME280;55193;52.102;5.242;2022-10-31T02:41:09;101992.0;;;11.81;100.0
61628;BME280;55193;52.102;5.242;2022-10-31T02:42:50;101998.0;;;11.81;100.0
61628;BME280;55193;52.102;5.242;2022-10-31T02:44:37;101997.0;;;11.77;100.0
61628;BME280;55193;52.102;5.242;2022-10-31T02:46:24;101995.0;;;11.73;100.0
61628;BME280;55193;52.102;5.242;2022-10-31T02:49:51;101997.0;;;11.72;100.0
61628;BME280;55193;52.102;5.242;2022-10-31T02:51:32;101996.0;;;11.69;100.0
61628;BME280;55193;52.102;5.242;2022-10-31T02:53:08;102001.0;;;11.62;100.0
61628;BME280;55193;52.102;5.242;2022-10-31T02:54:45;101998.0;;;11.56;100.0
61628;BME280;55193;52.102;5.242;2022-10-31T02:58:02;101997.0;;;11.57;100.0
61628;BME280;55193;52.102;5.242;2022-10-31T02:59:44;101995.0;;;11.68;100.0
61628;BME280;55193;52.102;5.242;2022-10-31T03:03:58;101999.0;;;11.64;100.0
61628;BME280;55193;52.102;5.242;2022-10-31T03:05:47;102001.0;;;11.48;100.0
61628;BME280;55193;52.102;5.242;2022-10-31T03:07:32;101999.0;;;11.52;100.0
61628;BME280;55193;52.102;5.242;2022-10-31T03:09:22;101995.0;;;11.51;100.0
61628;BME280;55193;52.102;5.242;2022-10-31T03:12:47;101995.0;;;11.5;100.0
61628;BME280;55193;52.102;5.242;2022-10-31T03:14:32;101995.0;;;11.44;100.0
61628;BME280;55193;52.102;5.242;2022-10-31T03:16:16;102002.0;;;11.47;100.0
61628;BME280;55193;52.102;5.242;2022-10-31T03:18:00;102005.0;;;11.5;100.0
61628;BME280;55193;52.102;5.242;2022-10-31T03:21:23;102005.0;;;11.47;100.0
61628;BME280;55193;52.102;5.242;2022-10-31T03:23:06;102002.0;;;11.41;100.0
61628;BME280;55193;52.102;5.242;2022-10-31T03:24:45;102003.0;;;11.39;100.0
61628;BME280;55193;52.102;5.242;2022-10-31T03:26:24;102005.0;;;11.41;100.0
61628;BME280;55193;52.102;5.242;2022-10-31T03:29:44;102003.0;;;11.38;100.0
61628;BME280;55193;52.102;5.242;2022-10-31T03:31:25;102002.0;;;11.35;100.0
61628;BME280;55193;52.102;5.242;2022-10-31T03:33:11;102000.0;;;11.3;100.0
61628;BME280;55193;52.102;5.242;2022-10-31T03:34:51;102001.0;;;11.3;100.0
61628;BME280;55193;52.102;5.242;2022-10-31T03:36:33;101997.0;;;11.38;100.0
61628;BME280;55193;52.102;5.242;2022-10-31T03:39:50;102002.0;;;11.34;100.0
61628;BME280;55193;52.102;5.242;2022-10-31T03:41:31;102002.0;;;11.33;100.0
61628;BME280;55193;52.102;5.242;2022-10-31T03:43:17;102005.0;;;11.31;100.0
61628;BME280;55193;52.102;5.242;2022-10-31T03:44:59;102005.0;;;11.43;100.0
61628;BME280;55193;52.102;5.242;2022-10-31T03:48:19;102005.0;;;11.34;100.0
61628;BME280;55193;52.102;5.242;2022-10-31T03:49:57;102003.0;;;11.36;100.0
61628;BME280;55193;52.102;5.242;2022-10-31T03:51:40;102005.0;;;11.33;100.0
61628;BME280;55193;52.102;5.242;2022-10-31T03:53:22;102007.0;;;11.34;100.0
61628;BME280;55193;52.102;5.242;2022-10-31T03:56:51;102001.0;;;11.28;100.0
61628;BME280;55193;52.102;5.242;2022-10-31T03:58:34;102001.0;;;11.23;100.0
61628;BME280;55193;52.102;5.242;2022-10-31T04:00:13;102000.0;;;11.23;100.0
61628;BME280;55193;52.102;5.242;2022-10-31T04:01:55;102003.0;;;11.32;100.0
61628;BME280;55193;52.102;5.242;2022-10-31T04:03:38;101999.0;;;11.33;100.0
61628;BME280;55193;52.102;5.242;2022-10-31T04:06:55;102006.0;;;11.22;100.0
61628;BME280;55193;52.102;5.242;2022-10-31T04:08:38;102005.0;;;11.2;100.0
61628;BME280;55193;52.102;5.242;2022-10-31T04:10:18;102005.0;;;11.26;100.0
61628;BME280;55193;52.102;5.242;2022-10-31T04:13:37;102005.0;;;11.22;100.0
61628;BME280;55193;52.102;5.242;2022-10-31T04:15:15;102005.0;;;11.23;100.0
61628;BME280;55193;52.102;5.242;2022-10-31T04:16:52;102003.0;;;11.18;100.0
61628;BME280;55193;52.102;5.242;2022-10-31T04:18:28;102005.0;;;11.21;100.0
61628;BME280;55193;52.102;5.242;2022-10-31T04:21:43;102002.0;;;11.25;100.0
61628;BME280;55193;52.102;5.242;2022-10-31T04:23:22;102005.0;;;11.13;100.0
61628;BME280;55193;52.102;5.242;2022-10-31T04:25:00;102003.0;;;11.09;100.0
61628;BME280;55193;52.102;5.242;2022-10-31T04:28:13;101997.0;;;11.08;100.0
61628;BME280;55193;52.102;5.242;2022-10-31T04:29:49;101999.0;;;11.06;100.0
61628;BME280;55193;52.102;5.242;2022-10-31T04:31:25;101998.0;;;11.1;100.0
61628;BME280;55193;52.102;5.242;2022-10-31T04:33:02;102002.0;;;10.98;100.0
61628;BME280;55193;52.102;5.242;2022-10-31T04:36:14;101993.0;;;11.0;100.0
61628;BME280;55193;52.102;5.242;2022-10-31T04:37:50;101995.0;;;11.04;100.0
61628;BME280;55193;52.102;5.242;2022-10-31T04:39:26;101995.0;;;11.08;100.0
61628;BME280;55193;52.102;5.242;2022-10-31T04:42:38;101993.0;;;11.15;100.0
61628;BME280;55193;52.102;5.242;2022-10-31T04:44:15;101987.0;;;11.1;100.0
61628;BME280;55193;52.102;5.242;2022-10-31T04:45:51;101991.0;;;11.06;100.0
61628;BME280;55193;52.102;5.242;2022-10-31T04:49:03;101989.0;;;11.02;100.0
61628;BME280;55193;52.102;5.242;2022-10-31T04:50:40;101985.0;;;11.02;100.0
61628;BME280;55193;52.102;5.242;2022-10-31T04:52:16;101989.0;;;11.02;100.0
61628;BME280;55193;52.102;5.242;2022-10-31T04:53:53;101990.0;;;10.99;100.0
61628;BME280;55193;52.102;5.242;2022-10-31T04:57:06;101991.0;;;11.02;100.0
61628;BME280;55193;52.102;5.242;2022-10-31T04:58:42;101990.0;;;11.02;100.0
61628;BME280;55193;52.102;5.242;2022-10-31T05:00:20;101990.0;;;11.04;100.0
61628;BME280;55193;52.102;5.242;2022-10-31T05:03:34;101991.0;;;10.99;100.0
61628;BME280;55193;52.102;5.242;2022-10-31T05:05:10;101989.0;;;10.97;100.0
61628;BME280;55193;52.102;5.242;2022-10-31T05:06:46;101989.0;;;11.01;100.0
61628;BME280;55193;52.102;5.242;2022-10-31T05:09:58;101990.0;;;10.99;100.0
61628;BME280;55193;52.102;5.242;2022-10-31T05:11:34;101989.0;;;10.97;100.0
61628;BME280;55193;52.102;5.242;2022-10-31T05:13:11;101992.0;;;11.03;100.0
61628;BME280;55193;52.102;5.242;2022-10-31T05:14:47;101996.0;;;10.98;100.0
61628;BME280;55193;52.102;5.242;2022-10-31T05:18:00;101993.0;;;10.93;100.0
61628;BME280;55193;52.102;5.242;2022-10-31T05:19:36;101992.0;;;10.94;100.0
61628;BME280;55193;52.102;5.242;2022-10-31T05:21:12;101984.0;;;10.92;100.0
61628;BME280;55193;52.102;5.242;2022-10-31T05:24:27;101985.0;;;10.94;100.0
61628;BME280;55193;52.102;5.242;2022-10-31T05:26:03;101986.0;;;10.94;100.0
61628;BME280;55193;52.102;5.242;2022-10-31T05:27:41;101981.0;;;10.92;100.0
61628;BME280;55193;52.102;5.242;2022-10-31T05:30:53;101977.0;;;10.93;100.0
61628;BME280;55193;52.102;5.242;2022-10-31T05:32:36;101980.0;;;10.87;100.0
61628;BME280;55193;52.102;5.242;2022-10-31T05:34:12;101980.0;;;10.88;100.0
61628;BME280;55193;52.102;5.242;2022-10-31T05:35:49;101982.0;;;10.86;100.0
61628;BME280;55193;52.102;5.242;2022-10-31T05:39:01;101981.0;;;10.81;100.0
61628;BME280;55193;52.102;5.242;2022-10-31T05:40:38;101980.0;;;10.76;100.0
61628;BME280;55193;52.102;5.242;2022-10-31T05:42:14;101976.0;;;10.76;100.0
61628;BME280;55193;52.102;5.242;2022-10-31T05:45:28;101972.0;;;10.78;100.0
61628;BME280;55193;52.102;5.242;2022-10-31T05:47:05;101978.0;;;10.78;100.0
61628;BME280;55193;52.102;5.242;2022-10-31T05:48:41;101977.0;;;10.76;100.0
61628;BME280;55193;52.102;5.242;2022-10-31T05:51:54;101971.0;;;10.72;100.0
61628;BME280;55193;52.102;5.242;2022-10-31T05:53:30;101972.0;;;10.73;100.0
61628;BME280;55193;52.102;5.242;2022-10-31T05:55:07;101970.0;;;10.73;100.0
61628;BME280;55193;52.102;5.242;2022-10-31T05:56:44;101968.0;;;10.75;100.0
61628;BME280;55193;52.102;5.242;2022-10-31T05:59:56;101965.0;;;10.69;100.0
61628;BME280;55193;52.102;5.242;2022-10-31T06:01:33;101962.0;;;10.71;100.0
61628;BME280;55193;52.102;5.242;2022-10-31T06:03:10;101959.0;;;10.71;100.0
61628;BME280;55193;52.102;5.242;2022-10-31T06:06:22;101956.0;;;10.8;100.0
61628;BME280;55193;52.102;5.242;2022-10-31T06:07:58;101961.0;;;10.79;100.0
61628;BME280;55193;52.102;5.242;2022-10-31T06:09:34;101958.0;;;10.86;100.0
61628;BME280;55193;52.102;5.242;2022-10-31T06:12:47;101955.0;;;10.83;100.0
61628;BME280;55193;52.102;5.242;2022-10-31T06:14:24;101949.0;;;10.86;100.0
61628;BME280;55193;52.102;5.242;2022-10-31T06:16:00;101955.0;;;10.89;100.0
61628;BME280;55193;52.102;5.242;2022-10-31T06:17:36;101957.0;;;10.99;100.0
61628;BME280;55193;52.102;5.242;2022-10-31T06:20:48;101958.0;;;11.06;100.0
61628;BME280;55193;52.102;5.242;2022-10-31T06:22:24;101958.0;;;11.07;100.0
61628;BME280;55193;52.102;5.242;2022-10-31T06:24:02;101959.0;;;11.19;100.0
61628;BME280;55193;52.102;5.242;2022-10-31T06:27:15;101964.0;;;11.13;100.0
61628;BME280;55193;52.102;5.242;2022-10-31T06:28:51;101966.0;;;11.19;100.0
61628;BME280;55193;52.102;5.242;2022-10-31T06:30:27;101962.0;;;11.21;100.0
61628;BME280;55193;52.102;5.242;2022-10-31T06:33:40;101958.0;;;11.29;100.0
61628;BME280;55193;52.102;5.242;2022-10-31T06:35:17;101968.0;;;11.28;100.0
61628;BME280;55193;52.102;5.242;2022-10-31T06:36:53;101971.0;;;11.32;100.0
61628;BME280;55193;52.102;5.242;2022-10-31T06:38:29;101978.0;;;11.36;100.0
61628;BME280;55193;52.102;5.242;2022-10-31T06:41:42;101972.0;;;11.29;100.0
61628;BME280;55193;52.102;5.242;2022-10-31T06:43:18;101970.0;;;11.28;100.0
61628;BME280;55193;52.102;5.242;2022-10-31T06:44:56;101974.0;;;11.28;100.0
61628;BME280;55193;52.102;5.242;2022-10-31T06:48:08;101975.0;;;11.28;100.0
61628;BME280;55193;52.102;5.242;2022-10-31T06:49:44;101975.0;;;11.34;100.0
61628;BME280;55193;52.102;5.242;2022-10-31T06:51:20;101967.0;;;11.48;100.0
61628;BME280;55193;52.102;5.242;2022-10-31T06:54:34;101969.0;;;11.59;100.0
61628;BME280;55193;52.102;5.242;2022-10-31T06:56:11;101973.0;;;11.54;100.0
61628;BME280;55193;52.102;5.242;2022-10-31T06:57:49;101974.0;;;11.51;100.0
61628;BME280;55193;52.102;5.242;2022-10-31T06:59:26;101971.0;;;11.48;100.0
61628;BME280;55193;52.102;5.242;2022-10-31T07:02:38;101976.0;;;11.49;100.0
61628;BME280;55193;52.102;5.242;2022-10-31T07:04:14;101976.0;;;11.51;100.0
61628;BME280;55193;52.102;5.242;2022-10-31T07:05:51;101974.0;;;11.5;100.0
61628;BME280;55193;52.102;5.242;2022-10-31T07:09:03;101973.0;;;11.54;100.0
61628;BME280;55193;52.102;5.242;2022-10-31T07:10:42;101975.0;;;11.55;100.0
61628;BME280;55193;52.102;5.242;2022-10-31T07:12:18;101976.0;;;11.56;100.0
61628;BME280;55193;52.102;5.242;2022-10-31T07:15:34;101975.0;;;11.64;100.0
61628;BME280;55193;52.102;5.242;2022-10-31T07:17:13;101972.0;;;11.69;100.0
61628;BME280;55193;52.102;5.242;2022-10-31T07:18:50;101970.0;;;11.71;100.0
61628;BME280;55193;52.102;5.242;2022-10-31T07:20:27;101974.0;;;11.74;100.0
61628;BME280;55193;52.102;5.242;2022-10-31T07:23:39;101973.0;;;11.81;100.0
61628;BME280;55193;52.102;5.242;2022-10-31T07:25:16;101973.0;;;11.8;100.0
61628;BME280;55193;52.102;5.242;2022-10-31T07:26:52;101978.0;;;11.84;100.0
61628;BME280;55193;52.102;5.242;2022-10-31T07:30:07;101980.0;;;11.86;100.0
61628;BME280;55193;52.102;5.242;2022-10-31T07:31:48;101981.0;;;11.91;100.0
61628;BME280;55193;52.102;5.242;2022-10-31T07:33:26;101986.0;;;11.97;100.0
61628;BME280;55193;52.102;5.242;2022-10-31T07:35:02;101983.0;;;12.08;100.0
61628;BME280;55193;52.102;5.242;2022-10-31T07:38:15;101984.0;;;12.02;100.0
61628;BME280;55193;52.102;5.242;2022-10-31T07:39:51;101983.0;;;12.02;100.0
61628;BME280;55193;52.102;5.242;2022-10-31T07:41:28;101980.0;;;12.04;100.0
61628;BME280;55193;52.102;5.242;2022-10-31T07:44:41;101982.0;;;12.07;100.0
61628;BME280;55193;52.102;5.242;2022-10-31T07:46:17;101987.0;;;12.15;100.0
61628;BME280;55193;52.102;5.242;2022-10-31T07:47:53;101983.0;;;12.28;100.0
61628;BME280;55193;52.102;5.242;2022-10-31T07:51:07;101987.0;;;12.34;100.0
61628;BME280;55193;52.102;5.242;2022-10-31T07:52:43;101989.0;;;12.43;100.0
61628;BME280;55193;52.102;5.242;2022-10-31T07:54:20;101992.0;;;12.51;100.0
61628;BME280;55193;52.102;5.242;2022-10-31T07:55:56;101992.0;;;12.58;100.0
61628;BME280;55193;52.102;5.242;2022-10-31T07:59:08;101990.0;;;12.66;100.0
61628;BME280;55193;52.102;5.242;2022-10-31T08:00:46;101994.0;;;12.71;100.0
61628;BME280;55193;52.102;5.242;2022-10-31T08:02:23;102001.0;;;12.87;100.0
61628;BME280;55193;52.102;5.242;2022-10-31T08:05:36;102001.0;;;12.89;100.0
61628;BME280;55193;52.102;5.242;2022-10-31T08:07:13;101993.0;;;13.03;100.0
61628;BME280;55193;52.102;5.242;2022-10-31T08:08:49;101996.0;;;13.1;100.0
61628;BME280;55193;52.102;5.242;2022-10-31T08:12:03;101999.0;;;13.18;100.0
61628;BME280;55193;52.102;5.242;2022-10-31T08:13:40;102002.0;;;13.31;100.0
61628;BME280;55193;52.102;5.242;2022-10-31T08:15:16;102006.0;;;13.35;100.0
61628;BME280;55193;52.102;5.242;2022-10-31T08:16:52;102002.0;;;13.43;100.0
61628;BME280;55193;52.102;5.242;2022-10-31T08:20:07;102001.0;;;13.57;100.0
61628;BME280;55193;52.102;5.242;2022-10-31T08:21:43;102005.0;;;13.65;100.0
61628;BME280;55193;52.102;5.242;2022-10-31T08:23:20;102005.0;;;13.76;100.0
61628;BME280;55193;52.102;5.242;2022-10-31T08:26:32;101995.0;;;13.9;100.0
61628;BME280;55193;52.102;5.242;2022-10-31T08:28:10;101991.0;;;13.94;100.0
61628;BME280;55193;52.102;5.242;2022-10-31T08:29:47;101989.0;;;14.02;100.0
61628;BME280;55193;52.102;5.242;2022-10-31T08:33:04;101995.0;;;14.1;100.0
61628;BME280;55193;52.102;5.242;2022-10-31T08:34:41;101989.0;;;14.15;100.0
61628;BME280;55193;52.102;5.242;2022-10-31T08:36:17;101988.0;;;14.25;100.0
61628;BME280;55193;52.102;5.242;2022-10-31T08:37:54;101988.0;;;14.24;100.0
61628;BME280;55193;52.102;5.242;2022-10-31T08:41:07;101989.0;;;14.3;100.0
61628;BME280;55193;52.102;5.242;2022-10-31T08:42:43;101992.0;;;14.28;100.0
61628;BME280;55193;52.102;5.242;2022-10-31T08:44:21;101997.0;;;14.3;100.0
61628;BME280;55193;52.102;5.242;2022-10-31T08:47:33;101993.0;;;14.29;100.0
61628;BME280;55193;52.102;5.242;2022-10-31T08:49:09;101985.0;;;14.25;100.0
61628;BME280;55193;52.102;5.242;2022-10-31T08:50:46;101989.0;;;14.23;100.0
61628;BME280;55193;52.102;5.242;2022-10-31T08:52:23;101980.0;;;14.24;100.0
61628;BME280;55193;52.102;5.242;2022-10-31T08:55:37;101975.0;;;14.27;100.0
61628;BME280;55193;52.102;5.242;2022-10-31T08:57:14;101971.0;;;14.26;100.0
61628;BME280;55193;52.102;5.242;2022-10-31T08:58:52;101968.0;;;14.32;100.0
61628;BME280;55193;52.102;5.242;2022-10-31T09:02:05;101967.0;;;14.43;100.0
61628;BME280;55193;52.102;5.242;2022-10-31T09:03:41;101966.0;;;14.45;100.0
61628;BME280;55193;52.102;5.242;2022-10-31T09:05:17;101963.0;;;14.57;100.0
61628;BME280;55193;52.102;5.242;2022-10-31T09:08:30;101959.0;;;14.6;100.0
61628;BME280;55193;52.102;5.242;2022-10-31T09:10:07;101961.0;;;14.65;100.0
61628;BME280;55193;52.102;5.242;2022-10-31T09:11:43;101959.0;;;14.65;100.0
61628;BME280;55193;52.102;5.242;2022-10-31T09:13:20;101955.0;;;14.71;100.0
61628;BME280;55193;52.102;5.242;2022-10-31T09:16:33;101953.0;;;14.71;100.0
61628;BME280;55193;52.102;5.242;2022-10-31T09:18:10;101947.0;;;14.8;100.0
61628;BME280;55193;52.102;5.242;2022-10-31T09:19:46;101945.0;;;14.95;100.0
61628;BME280;55193;52.102;5.242;2022-10-31T09:23:01;101934.0;;;15.01;100.0
61628;BME280;55193;52.102;5.242;2022-10-31T09:24:38;101927.0;;;15.23;100.0
61628;BME280;55193;52.102;5.242;2022-10-31T09:26:14;101926.0;;;15.28;100.0
61628;BME280;55193;52.102;5.242;2022-10-31T09:29:26;101927.0;;;15.45;100.0
61628;BME280;55193;52.102;5.242;2022-10-31T09:31:02;101925.0;;;15.47;100.0
61628;BME280;55193;52.102;5.242;2022-10-31T09:32:38;101916.0;;;15.5;100.0
61628;BME280;55193;52.102;5.242;2022-10-31T09:34:14;101919.0;;;15.58;100.0
61628;BME280;55193;52.102;5.242;2022-10-31T09:37:27;101921.0;;;15.6;100.0
61628;BME280;55193;52.102;5.242;2022-10-31T09:39:03;101921.0;;;15.66;100.0
61628;BME280;55193;52.102;5.242;2022-10-31T09:40:41;101923.0;;;15.7;100.0
61628;BME280;55193;52.102;5.242;2022-10-31T09:44:29;101927.0;;;15.74;100.0
61628;BME280;55193;52.102;5.242;2022-10-31T09:46:18;101928.0;;;15.78;100.0
61628;BME280;55193;52.102;5.242;2022-10-31T09:48:12;101928.0;;;15.78;100.0
61628;BME280;55193;52.102;5.242;2022-10-31T09:50:15;101930.0;;;15.81;100.0
61628;BME280;55193;52.102;5.242;2022-10-31T09:52:00;101930.0;;;15.83;100.0
61628;BME280;55193;52.102;5.242;2022-10-31T09:53:53;101925.0;;;15.83;100.0
61628;BME280;55193;52.102;5.242;2022-10-31T09:55:36;101916.0;;;15.83;100.0
61628;BME280;55193;52.102;5.242;2022-10-31T09:57:18;101912.0;;;15.84;100.0
61628;BME280;55193;52.102;5.242;2022-10-31T10:00:40;101913.0;;;15.83;100.0
61628;BME280;55193;52.102;5.242;2022-10-31T10:02:23;101908.0;;;15.97;100.0
61628;BME280;55193;52.102;5.242;2022-10-31T10:04:03;101908.0;;;16.03;99.79
61628;BME280;55193;52.102;5.242;2022-10-31T10:05:54;101908.0;;;16.02;99.87
61628;BME280;55193;52.102;5.242;2022-10-31T10:09:24;101910.0;;;16.04;99.28
61628;BME280;55193;52.102;5.242;2022-10-31T10:11:13;101908.0;;;16.09;99.41
61628;BME280;55193;52.102;5.242;2022-10-31T10:13:15;101905.0;;;16.11;99.25
61628;BME280;55193;52.102;5.242;2022-10-31T10:15:26;101897.0;;;16.16;98.9
61628;BME280;55193;52.102;5.242;2022-10-31T10:18:09;101895.0;;;16.2;98.99
61628;BME280;55193;52.102;5.242;2022-10-31T10:20:02;101891.0;;;16.23;98.78
61628;BME280;55193;52.102;5.242;2022-10-31T10:21:56;101891.0;;;16.28;97.78
61628;BME280;55193;52.102;5.242;2022-10-31T10:23:50;101890.0;;;16.39;96.81
61628;BME280;55193;52.102;5.242;2022-10-31T10:25:37;101890.0;;;16.37;96.99
61628;BME280;55193;52.102;5.242;2022-10-31T10:27:19;101892.0;;;16.37;97.15
61628;BME280;55193;52.102;5.242;2022-10-31T10:29:16;101889.0;;;16.39;97.37
61628;BME280;55193;52.102;5.242;2022-10-31T10:30:57;101886.0;;;16.46;96.92
61628;BME280;55193;52.102;5.242;2022-10-31T10:34:21;101880.0;;;16.45;97.04
61628;BME280;55193;52.102;5.242;2022-10-31T10:36:05;101880.0;;;16.5;96.85
61628;BME280;55193;52.102;5.242;2022-10-31T10:37:46;101880.0;;;16.54;96.54
61628;BME280;55193;52.102;5.242;2022-10-31T10:39:28;101876.0;;;16.59;96.82
61628;BME280;55193;52.102;5.242;2022-10-31T10:43:29;101877.0;;;16.61;95.9
61628;BME280;55193;52.102;5.242;2022-10-31T10:48:06;101863.0;;;16.61;96.03
61628;BME280;55193;52.102;5.242;2022-10-31T10:49:45;101850.0;;;16.68;95.73
61628;BME280;55193;52.102;5.242;2022-10-31T10:53:30;101842.0;;;16.72;96.24
61628;BME280;55193;52.102;5.242;2022-10-31T10:55:17;101833.0;;;16.73;96.1
61628;BME280;55193;52.102;5.242;2022-10-31T10:57:08;101827.0;;;16.77;95.66
61628;BME280;55193;52.102;5.242;2022-10-31T10:58:50;101826.0;;;16.84;95.64
61628;BME280;55193;52.102;5.242;2022-10-31T11:00:31;101818.0;;;16.93;94.59
61628;BME280;55193;52.102;5.242;2022-10-31T11:02:18;101814.0;;;16.9;94.69
61628;BME280;55193;52.102;5.242;2022-10-31T11:05:41;101808.0;;;16.95;94.8
61628;BME280;55193;52.102;5.242;2022-10-31T11:07:22;101800.0;;;17.02;94.42
61628;BME280;55193;52.102;5.242;2022-10-31T11:09:08;101792.0;;;17.12;93.86
61628;BME280;55193;52.102;5.242;2022-10-31T11:10:56;101792.0;;;17.13;94.26
61628;BME280;55193;52.102;5.242;2022-10-31T11:12:33;101783.0;;;17.21;94.23